Time;durP1;ratioP1;P1;durP2;ratioP2;P2;SDS_P1;SDS_P2;PMS_P1;PMS_P2;Temp;Humidity;BMP_temperature;BMP_pressure;BME280_temperature;BME280_humidity;BME280_pressure;Samples;Min_cycle;Max_cycle;Signal;HPM_P1;HPM_P2
2023/09/21 00:00:55;;;;;;;2.27;2.10;;;25.20;52.50;;;;;;4990513;28;20682;-45
2023/09/21 00:03:22;;;;;;;2.67;1.90;;;25.20;52.10;;;;;;4993119;28;20249;-46
2023/09/21 00:05:51;;;;;;;2.97;1.90;;;25.30;52.30;;;;;;4993560;28;20441;-45
2023/09/21 00:08:17;;;;;;;3.00;2.10;;;25.30;52.10;;;;;;4993279;28;20478;-45
2023/09/21 00:10:42;;;;;;;4.03;2.30;;;25.40;52.20;;;;;;4989851;28;20532;-45
2023/09/21 00:13:08;;;;;;;4.50;2.03;;;25.40;52.10;;;;;;4989256;28;20209;-46
2023/09/21 00:15:34;;;;;;;2.17;1.90;;;25.40;51.60;;;;;;4989091;28;20202;-46
2023/09/21 00:18:00;;;;;;;2.27;2.07;;;25.50;51.70;;;;;;4989151;28;20233;-45
2023/09/21 00:20:36;;;;;;;2.83;2.03;;;25.60;51.60;;;;;;4991858;28;20895;-45
2023/09/21 00:23:06;;;;;;;4.70;2.60;;;25.60;51.70;;;;;;4992338;28;20190;-45
2023/09/21 00:25:32;;;;;;;2.30;2.10;;;25.60;51.60;;;;;;4990887;28;20481;-45
2023/09/21 00:27:58;;;;;;;3.43;1.87;;;25.60;51.20;;;;;;4990573;28;20449;-45
2023/09/21 00:30:24;;;;;;;2.00;1.80;;;25.40;51.70;;;;;;4989902;28;20446;-45
2023/09/21 00:32:50;;;;;;;2.63;2.20;;;25.50;51.50;;;;;;4985125;28;20210;-45
2023/09/21 00:35:16;;;;;;;2.23;2.03;;;25.50;51.60;;;;;;4990988;28;20642;-46
2023/09/21 00:37:42;;;;;;;2.07;1.90;;;25.50;51.40;;;;;;4971561;28;20218;-46
2023/09/21 00:40:18;;;;;;;2.10;2.00;;;25.40;51.60;;;;;;4990736;28;20799;-48
2023/09/21 00:42:45;;;;;;;2.80;2.17;;;25.50;51.70;;;;;;4990930;28;20453;-46
2023/09/21 00:45:12;;;;;;;3.20;1.90;;;25.60;51.60;;;;;;4989597;28;20759;-45
2023/09/21 00:47:44;;;;;;;3.00;2.20;;;25.60;51.40;;;;;;4987858;28;20454;-46
2023/09/21 00:50:12;;;;;;;4.67;2.20;;;25.60;51.50;;;;;;4991706;28;20807;-45
2023/09/21 00:52:43;;;;;;;3.50;1.83;;;25.60;51.30;;;;;;4990218;28;20481;-50
2023/09/21 00:55:24;;;;;;;6.30;2.90;;;25.50;50.50;;;;;;4990677;28;20438;-45
2023/09/21 00:57:55;;;;;;;4.13;3.30;;;25.10;51.20;;;;;;4991858;28;20489;-45
2023/09/21 01:00:26;;;;;;;3.57;2.33;;;24.70;52.00;;;;;;4990580;28;20445;-45
2023/09/21 01:02:53;;;;;;;4.53;3.43;;;24.20;52.90;;;;;;4990840;28;20449;-45
2023/09/21 01:05:21;;;;;;;4.23;2.43;;;23.90;53.50;;;;;;4987002;28;20433;-45
2023/09/21 01:07:50;;;;;;;9.47;2.43;;;23.80;53.90;;;;;;4991262;28;20449;-46
2023/09/21 01:10:21;;;;;;;2.60;2.40;;;23.90;53.90;;;;;;4986071;28;20964;-45
2023/09/21 01:12:49;;;;;;;2.43;2.13;;;23.90;53.90;;;;;;4990935;28;20446;-45
2023/09/21 01:15:16;;;;;;;2.80;2.10;;;24.00;53.50;;;;;;4988246;28;20438;-46
2023/09/21 01:17:41;;;;;;;3.40;2.17;;;24.00;53.30;;;;;;4989258;28;20987;-45
2023/09/21 01:20:22;;;;;;;3.97;2.33;;;24.00;53.30;;;;;;4990308;28;20457;-45
2023/09/21 01:23:18;;;;;;;4.10;2.43;;;23.90;53.40;;;;;;4990083;28;20314;-45
2023/09/21 01:25:46;;;;;;;2.23;1.83;;;23.90;53.50;;;;;;4990038;28;20512;-47
2023/09/21 01:28:18;;;;;;;8.10;2.33;;;23.80;53.40;;;;;;4984848;28;20460;-45
2023/09/21 01:30:44;;;;;;;4.30;2.57;;;23.90;53.40;;;;;;4990739;28;20461;-45
2023/09/21 01:33:11;;;;;;;7.27;2.27;;;24.00;53.60;;;;;;4991316;28;20454;-45
2023/09/21 01:35:43;;;;;;;5.40;2.10;;;24.00;53.30;;;;;;4989750;28;20532;-45
2023/09/21 01:38:09;;;;;;;3.47;2.17;;;24.10;52.90;;;;;;4986826;28;20981;-48
2023/09/21 01:40:36;;;;;;;2.47;2.03;;;24.10;52.70;;;;;;4987473;28;20450;-45
2023/09/21 01:43:23;;;;;;;5.50;2.13;;;24.10;52.60;;;;;;4988063;28;20460;-45
2023/09/21 01:45:50;;;;;;;2.53;2.33;;;24.10;52.30;;;;;;4989520;28;20453;-45
2023/09/21 01:48:18;;;;;;;3.20;2.50;;;24.10;52.30;;;;;;4989205;28;20446;-45
2023/09/21 01:50:46;;;;;;;2.70;2.47;;;24.10;52.50;;;;;;4989013;28;20437;-45
2023/09/21 01:53:12;;;;;;;3.13;2.10;;;24.10;52.50;;;;;;4988957;28;20437;-47
2023/09/21 01:55:39;;;;;;;2.70;1.93;;;23.90;52.70;;;;;;4987052;28;20450;-47
2023/09/21 01:58:05;;;;;;;2.53;2.00;;;23.80;52.90;;;;;;4990588;28;20485;-45
2023/09/21 02:00:35;;;;;;;2.13;1.93;;;23.70;53.30;;;;;;4990056;28;20434;-45
2023/09/21 02:03:06;;;;;;;2.40;1.90;;;23.70;53.20;;;;;;4991465;28;20533;-45
2023/09/21 02:05:32;;;;;;;2.60;2.23;;;23.70;53.30;;;;;;4990852;28;20536;-49
2023/09/21 02:07:58;;;;;;;4.43;2.30;;;23.70;53.10;;;;;;4990872;28;20445;-45
2023/09/21 02:10:24;;;;;;;2.27;2.00;;;23.70;53.20;;;;;;4991761;28;20969;-45
2023/09/21 02:12:55;;;;;;;3.67;2.50;;;23.70;53.40;;;;;;4988354;28;20444;-45
2023/09/21 02:15:21;;;;;;;3.47;2.30;;;23.60;53.80;;;;;;4991491;28;20226;-45
2023/09/21 02:17:46;;;;;;;2.57;2.30;;;23.60;54.00;;;;;;4990299;28;20532;-47
2023/09/21 02:20:16;;;;;;;4.23;2.83;;;23.40;54.20;;;;;;4988555;28;20194;-45
2023/09/21 02:22:52;;;;;;;2.50;2.30;;;23.40;54.20;;;;;;4989754;28;20199;-44
2023/09/21 02:25:19;;;;;;;2.57;2.37;;;23.30;54.80;;;;;;4988890;28;20817;-46
2023/09/21 02:27:46;;;;;;;3.07;2.10;;;23.30;54.80;;;;;;4991056;28;20450;-45
2023/09/21 02:30:17;;;;;;;5.50;2.70;;;23.40;54.70;;;;;;4991906;28;20464;-45
2023/09/21 02:32:45;;;;;;;3.80;2.23;;;23.20;55.00;;;;;;4988891;28;20448;-45
2023/09/21 02:35:15;;;;;;;3.80;2.33;;;23.00;55.40;;;;;;4988405;28;20446;-45
2023/09/21 02:37:47;;;;;;;4.37;2.50;;;23.00;55.30;;;;;;4990329;28;20489;-49
2023/09/21 02:40:16;;;;;;;3.80;2.50;;;23.00;55.20;;;;;;4990463;28;20500;-46
2023/09/21 02:42:44;;;;;;;3.03;2.00;;;23.00;55.20;;;;;;4990153;28;20454;-45
2023/09/21 02:45:13;;;;;;;4.70;2.27;;;23.00;55.50;;;;;;4984358;28;20929;-46
2023/09/21 02:47:42;;;;;;;3.30;2.37;;;22.70;56.10;;;;;;4987713;28;20941;-45
2023/09/21 02:50:14;;;;;;;2.57;2.37;;;22.30;57.10;;;;;;4990685;28;20523;-48
2023/09/21 02:52:54;;;;;;;3.00;2.40;;;22.10;57.60;;;;;;4990290;28;20500;-47
2023/09/21 02:55:21;;;;;;;2.63;2.20;;;22.10;57.90;;;;;;4987354;28;20572;-44
2023/09/21 02:57:55;;;;;;;2.50;2.10;;;22.30;57.50;;;;;;4988548;28;20492;-50
2023/09/21 03:00:22;;;;;;;3.63;3.17;;;22.40;57.10;;;;;;4988162;28;20569;-51
2023/09/21 03:02:49;;;;;;;6.33;2.57;;;22.30;56.90;;;;;;4986084;28;20451;-46
2023/09/21 03:05:18;;;;;;;2.50;2.30;;;22.40;57.00;;;;;;4988997;28;20477;-51
2023/09/21 03:07:44;;;;;;;2.33;2.17;;;22.50;56.90;;;;;;4987515;28;20442;-49
2023/09/21 03:10:11;;;;;;;2.60;2.40;;;22.70;56.50;;;;;;4994869;28;20441;-46
2023/09/21 03:12:38;;;;;;;4.53;2.83;;;22.90;56.10;;;;;;4991974;28;20452;-50
2023/09/21 03:15:07;;;;;;;4.80;2.40;;;23.00;55.90;;;;;;4993933;28;20551;-46
2023/09/21 03:17:38;;;;;;;4.90;2.50;;;22.60;56.40;;;;;;4991609;28;20504;-46
2023/09/21 03:20:23;;;;;;;2.37;2.17;;;22.50;56.80;;;;;;4992505;28;20481;-48
2023/09/21 03:22:48;;;;;;;8.77;2.87;;;22.50;56.80;;;;;;4993201;28;20445;-46
2023/09/21 03:25:16;;;;;;;3.70;2.60;;;22.30;57.20;;;;;;4990835;28;20465;-46
2023/09/21 03:27:42;;;;;;;4.07;2.20;;;22.30;57.20;;;;;;4992125;28;20214;-46
2023/09/21 03:30:11;;;;;;;3.50;2.30;;;21.90;57.40;;;;;;4988301;28;20811;-48
2023/09/21 03:32:41;;;;;;;3.73;2.60;;;21.70;58.60;;;;;;4992839;28;20929;-46
2023/09/21 03:35:11;;;;;;;2.50;2.30;;;21.70;58.40;;;;;;4993938;28;20844;-46
2023/09/21 03:37:38;;;;;;;2.43;2.23;;;21.70;58.70;;;;;;4985710;28;20988;-46
2023/09/21 03:40:06;;;;;;;3.00;2.23;;;21.90;58.50;;;;;;4991898;28;20453;-46
2023/09/21 03:42:32;;;;;;;3.83;2.90;;;21.90;58.20;;;;;;4991352;28;20818;-47
2023/09/21 03:44:58;;;;;;;2.80;2.50;;;21.90;58.20;;;;;;4992448;28;20454;-47
2023/09/21 03:47:24;;;;;;;4.03;2.53;;;22.00;58.10;;;;;;4991499;28;21167;-46
2023/09/21 03:49:49;;;;;;;4.10;2.57;;;22.20;57.70;;;;;;4993404;28;20194;-47
2023/09/21 03:52:16;;;;;;;3.47;2.43;;;22.40;57.40;;;;;;4992939;28;20202;-47
2023/09/21 03:54:46;;;;;;;2.70;2.50;;;22.40;57.10;;;;;;4988614;28;20205;-46
2023/09/21 03:57:14;;;;;;;3.23;2.67;;;22.30;56.80;;;;;;4989731;28;20849;-46
2023/09/21 03:59:40;;;;;;;3.47;2.00;;;22.00;57.70;;;;;;4992021;28;20437;-46
2023/09/21 04:02:09;;;;;;;2.37;2.17;;;21.90;58.00;;;;;;5000182;28;20801;-46
2023/09/21 04:04:35;;;;;;;2.73;2.53;;;22.00;58.10;;;;;;4992765;28;20442;-46
2023/09/21 04:07:00;;;;;;;3.40;3.10;;;22.10;57.90;;;;;;4992294;28;20517;-46
2023/09/21 04:09:26;;;;;;;3.80;3.50;;;22.00;57.50;;;;;;4992343;28;20206;-48
2023/09/21 04:11:51;;;;;;;4.13;3.30;;;22.00;57.60;;;;;;4991640;28;20199;-43
2023/09/21 04:14:17;;;;;;;3.80;3.50;;;22.10;57.60;;;;;;4991500;28;20602;-46
2023/09/21 04:16:42;;;;;;;3.80;2.77;;;22.10;57.30;;;;;;4983535;28;20203;-45
2023/09/21 04:19:10;;;;;;;10.50;3.27;;;22.00;57.30;;;;;;4991312;28;20313;-46
2023/09/21 04:21:36;;;;;;;3.17;2.43;;;22.10;57.60;;;;;;4991869;28;20717;-47
2023/09/21 04:24:02;;;;;;;3.87;3.57;;;22.20;57.40;;;;;;4985254;28;20438;-44
2023/09/21 04:26:29;;;;;;;2.87;2.40;;;22.20;57.30;;;;;;4986746;28;20979;-43
2023/09/21 04:28:55;;;;;;;3.53;2.57;;;22.30;57.10;;;;;;4988821;28;20445;-44
2023/09/21 04:31:21;;;;;;;3.50;2.67;;;22.50;57.40;;;;;;4988537;28;20469;-43
2023/09/21 04:33:47;;;;;;;5.00;4.60;;;22.60;56.60;;;;;;4988899;28;20446;-44
2023/09/21 04:36:13;;;;;;;6.90;6.30;;;22.50;56.60;;;;;;4988548;28;20199;-43
2023/09/21 04:38:39;;;;;;;4.37;4.07;;;22.40;56.90;;;;;;4987417;28;20498;-44
2023/09/21 04:41:05;;;;;;;5.60;5.20;;;22.10;57.30;;;;;;4990126;28;20677;-44
2023/09/21 04:43:32;;;;;;;10.60;5.80;;;21.80;57.90;;;;;;4987632;28;20667;-43
2023/09/21 04:45:59;;;;;;;7.00;6.30;;;22.00;58.20;;;;;;4988405;28;20717;-43
2023/09/21 04:48:25;;;;;;;6.53;6.03;;;22.20;57.50;;;;;;4992945;28;20500;-44
2023/09/21 04:50:51;;;;;;;7.03;6.53;;;22.30;57.20;;;;;;4988923;28;20442;-43
2023/09/21 04:53:16;;;;;;;5.93;4.57;;;22.50;56.80;;;;;;4989354;28;20199;-45
2023/09/21 04:55:42;;;;;;;3.70;3.40;;;22.60;56.50;;;;;;4992091;28;20248;-48
2023/09/21 04:58:08;;;;;;;4.20;2.90;;;22.60;56.10;;;;;;4990531;28;20223;-46
2023/09/21 05:00:33;;;;;;;3.90;3.07;;;22.60;56.10;;;;;;4990753;28;20661;-47
2023/09/21 05:02:59;;;;;;;7.13;3.40;;;22.50;56.40;;;;;;4987472;28;20199;-46
2023/09/21 05:05:26;;;;;;;4.23;2.70;;;22.40;56.70;;;;;;4989686;28;20206;-45
2023/09/21 05:07:53;;;;;;;2.97;2.60;;;22.50;56.90;;;;;;4991347;28;20442;-46
2023/09/21 05:10:18;;;;;;;2.77;2.57;;;22.50;56.90;;;;;;4992896;28;20464;-46
2023/09/21 05:12:48;;;;;;;8.60;3.10;;;22.50;56.70;;;;;;4990241;28;20434;-46
2023/09/21 05:15:15;;;;;;;4.80;3.23;;;22.50;57.00;;;;;;4989816;28;20564;-45
2023/09/21 05:17:41;;;;;;;3.97;2.93;;;22.30;56.80;;;;;;4989907;28;20469;-45
2023/09/21 05:20:10;;;;;;;4.40;2.77;;;22.10;57.20;;;;;;4990432;28;20968;-43
2023/09/21 05:22:39;;;;;;;3.30;2.80;;;22.10;57.20;;;;;;4992383;28;20187;-47
2023/09/21 05:25:05;;;;;;;2.50;2.30;;;22.10;57.10;;;;;;4990401;28;20484;-47
2023/09/21 05:27:31;;;;;;;3.63;3.27;;;22.10;57.10;;;;;;4990837;28;20449;-45
2023/09/21 05:29:57;;;;;;;2.87;2.50;;;22.10;57.00;;;;;;4991996;28;20453;-47
2023/09/21 05:32:24;;;;;;;5.57;3.07;;;22.10;57.10;;;;;;4989709;28;20298;-45
2023/09/21 05:34:51;;;;;;;3.53;2.97;;;22.00;57.40;;;;;;4990944;28;20484;-45
2023/09/21 05:37:17;;;;;;;6.03;2.93;;;22.10;57.70;;;;;;4988673;28;20477;-45
2023/09/21 05:39:43;;;;;;;2.90;2.70;;;22.00;58.60;;;;;;4991390;28;20464;-47
2023/09/21 05:42:10;;;;;;;4.47;2.73;;;22.10;57.80;;;;;;4986744;28;20446;-46
2023/09/21 05:44:38;;;;;;;3.53;2.90;;;22.10;57.70;;;;;;4987772;28;20290;-48
2023/09/21 05:47:03;;;;;;;3.53;2.80;;;22.10;58.10;;;;;;4987810;28;20445;-48
2023/09/21 05:49:31;;;;;;;2.60;2.40;;;22.30;58.90;;;;;;4990332;28;20819;-47
2023/09/21 05:51:59;;;;;;;4.40;2.20;;;22.30;58.50;;;;;;4991257;28;20219;-50
2023/09/21 05:54:26;;;;;;;2.90;2.50;;;22.50;57.80;;;;;;4983031;28;20485;-47
2023/09/21 05:56:53;;;;;;;3.67;2.53;;;22.80;57.90;;;;;;4988696;28;20460;-49
2023/09/21 05:59:19;;;;;;;2.20;2.00;;;22.90;56.70;;;;;;4984182;28;20500;-49
2023/09/21 06:01:45;;;;;;;3.00;2.80;;;23.00;56.50;;;;;;4988696;28;20847;-50
2023/09/21 06:04:12;;;;;;;2.80;2.57;;;22.60;56.80;;;;;;4988950;28;20457;-48
2023/09/21 06:06:38;;;;;;;2.60;2.37;;;22.30;58.00;;;;;;4981513;28;20441;-51
2023/09/21 06:09:05;;;;;;;2.83;2.57;;;22.20;57.80;;;;;;4990109;28;20961;-49
2023/09/21 06:11:30;;;;;;;2.77;2.57;;;22.10;58.70;;;;;;4985344;28;20883;-47
2023/09/21 06:13:56;;;;;;;2.57;2.37;;;22.20;58.40;;;;;;4984984;28;20541;-48
2023/09/21 06:16:22;;;;;;;2.73;2.33;;;22.50;57.60;;;;;;4989781;28;20195;-50
2023/09/21 06:18:48;;;;;;;3.83;3.40;;;22.60;57.30;;;;;;4989453;28;20214;-48
2023/09/21 06:21:17;;;;;;;5.27;4.17;;;22.70;57.40;;;;;;4990741;28;20449;-46
2023/09/21 06:23:44;;;;;;;3.40;3.00;;;23.00;57.50;;;;;;4987842;28;20520;-48
2023/09/21 06:26:16;;;;;;;3.17;2.87;;;23.00;56.50;;;;;;4987390;28;20571;-50
2023/09/21 06:28:48;;;;;;;3.13;2.93;;;23.00;56.80;;;;;;4979926;28;20434;-49
2023/09/21 06:31:15;;;;;;;2.83;2.50;;;23.10;56.10;;;;;;4988140;28;20535;-45
2023/09/21 06:33:41;;;;;;;2.87;2.67;;;23.00;56.60;;;;;;4989954;28;21162;-49
2023/09/21 06:36:14;;;;;;;3.27;3.00;;;23.00;56.60;;;;;;4991373;28;20426;-49
2023/09/21 06:38:42;;;;;;;4.57;3.73;;;23.20;56.70;;;;;;4989983;28;20593;-48
2023/09/21 06:41:08;;;;;;;5.17;3.00;;;23.50;56.30;;;;;;4989337;28;20442;-49
2023/09/21 06:43:36;;;;;;;3.73;2.70;;;23.70;55.80;;;;;;4994209;28;20813;-48
2023/09/21 06:46:02;;;;;;;2.97;2.50;;;23.90;55.70;;;;;;4995837;28;20651;-50
2023/09/21 06:48:27;;;;;;;3.43;3.13;;;24.10;55.20;;;;;;4994443;28;21236;-50
2023/09/21 06:50:53;;;;;;;3.23;2.60;;;24.30;54.80;;;;;;4996147;28;20432;-50
2023/09/21 06:53:18;;;;;;;2.90;2.70;;;24.40;54.40;;;;;;4995916;28;20194;-47
2023/09/21 06:55:44;;;;;;;3.67;2.80;;;24.40;54.20;;;;;;4994178;28;20199;-49
2023/09/21 06:58:10;;;;;;;4.60;2.60;;;24.50;53.70;;;;;;4995668;28;20218;-47
2023/09/21 07:00:37;;;;;;;5.43;2.37;;;24.50;53.60;;;;;;4992220;28;20249;-49
2023/09/21 07:03:03;;;;;;;5.07;2.30;;;24.50;53.80;;;;;;4992309;28;20277;-50
2023/09/21 07:05:28;;;;;;;3.37;3.07;;;24.60;53.20;;;;;;4993204;28;20453;-45
2023/09/21 07:07:54;;;;;;;3.60;2.60;;;24.80;53.10;;;;;;4991686;28;20806;-47
2023/09/21 07:10:20;;;;;;;7.33;3.13;;;24.80;53.00;;;;;;4993989;28;20203;-46
2023/09/21 07:12:45;;;;;;;2.60;2.30;;;24.90;53.10;;;;;;4993650;28;20274;-48
2023/09/21 07:15:11;;;;;;;2.80;2.60;;;24.70;52.80;;;;;;4995278;28;20206;-46
2023/09/21 07:17:37;;;;;;;3.23;2.80;;;24.80;53.10;;;;;;4991699;28;20227;-45
2023/09/21 07:20:06;;;;;;;2.60;2.40;;;24.90;53.60;;;;;;4995574;28;20197;-46
2023/09/21 07:22:32;;;;;;;2.40;2.17;;;25.00;52.70;;;;;;4994289;28;20202;-45
2023/09/21 07:24:59;;;;;;;2.73;2.47;;;25.10;52.80;;;;;;4993379;28;20534;-47
2023/09/21 07:27:24;;;;;;;4.20;2.80;;;25.30;52.50;;;;;;4993458;28;20465;-46
2023/09/21 07:29:53;;;;;;;2.90;2.60;;;25.40;52.30;;;;;;4993370;28;20441;-46
2023/09/21 07:32:20;;;;;;;2.67;2.30;;;25.40;51.80;;;;;;4993622;28;20210;-46
2023/09/21 07:34:48;;;;;;;3.60;2.53;;;25.60;51.80;;;;;;4989890;28;20452;-46
2023/09/21 07:37:16;;;;;;;3.23;2.93;;;25.60;51.70;;;;;;4989577;28;20504;-46
2023/09/21 07:39:42;;;;;;;4.63;3.07;;;25.60;51.50;;;;;;4992893;28;20453;-50
2023/09/21 07:42:08;;;;;;;2.97;2.57;;;25.60;51.90;;;;;;4988195;28;20537;-47
2023/09/21 07:44:33;;;;;;;3.73;2.50;;;25.50;51.70;;;;;;4987479;28;20448;-46
2023/09/21 07:46:59;;;;;;;3.57;2.70;;;25.60;51.80;;;;;;4989776;28;20446;-45
2023/09/21 07:49:25;;;;;;;5.33;2.90;;;25.70;51.50;;;;;;4991659;28;20282;-47
2023/09/21 07:51:52;;;;;;;2.93;2.63;;;25.70;51.10;;;;;;4991109;28;20206;-45
2023/09/21 07:54:17;;;;;;;3.60;2.43;;;25.70;51.30;;;;;;4989875;28;20207;-49
2023/09/21 07:56:43;;;;;;;6.33;2.60;;;25.90;51.00;;;;;;4988055;28;20449;-49
2023/09/21 07:59:11;;;;;;;3.27;2.57;;;25.90;50.90;;;;;;4994244;28;20316;-48
2023/09/21 08:01:37;;;;;;;4.30;2.40;;;26.10;50.50;;;;;;4989227;28;20207;-47
2023/09/21 08:04:03;;;;;;;4.63;2.40;;;26.20;50.30;;;;;;4992969;28;20975;-46
2023/09/21 08:06:28;;;;;;;3.67;2.60;;;26.30;50.30;;;;;;4993831;28;20281;-45
2023/09/21 08:08:54;;;;;;;4.57;3.10;;;26.30;49.80;;;;;;4989542;28;20657;-46
2023/09/21 08:11:21;;;;;;;4.10;2.97;;;26.30;50.20;;;;;;4988156;28;20201;-47
2023/09/21 08:13:47;;;;;;;3.40;3.10;;;26.40;50.40;;;;;;4992954;28;20639;-46
2023/09/21 08:16:13;;;;;;;2.87;2.60;;;26.60;50.20;;;;;;4991163;28;20444;-45
2023/09/21 08:18:39;;;;;;;3.80;3.03;;;26.80;50.00;;;;;;4991812;28;20313;-45
2023/09/21 08:21:06;;;;;;;2.97;2.47;;;27.00;49.70;;;;;;4991795;28;20544;-46
2023/09/21 08:23:32;;;;;;;3.63;3.10;;;27.20;49.30;;;;;;4992677;28;20190;-45
2023/09/21 08:25:58;;;;;;;4.03;2.70;;;27.30;48.30;;;;;;4988747;28;20479;-46
2023/09/21 08:28:24;;;;;;;3.20;2.90;;;27.40;47.90;;;;;;4990340;28;20445;-49
2023/09/21 08:30:50;;;;;;;3.03;2.57;;;27.20;47.80;;;;;;4988003;28;20941;-50
2023/09/21 08:33:17;;;;;;;3.00;2.70;;;27.10;48.40;;;;;;4984758;28;20469;-46
2023/09/21 08:35:43;;;;;;;3.30;2.80;;;27.00;48.70;;;;;;4989026;28;20225;-48
2023/09/21 08:38:09;;;;;;;5.83;3.50;;;27.00;49.10;;;;;;4979427;28;20491;-45
2023/09/21 08:40:37;;;;;;;5.90;2.67;;;27.20;48.90;;;;;;4985380;28;20442;-44
2023/09/21 08:43:04;;;;;;;2.67;2.47;;;27.20;48.10;;;;;;4990692;28;20438;-47
2023/09/21 08:45:30;;;;;;;2.30;2.10;;;27.20;48.50;;;;;;4991941;28;20941;-45
2023/09/21 08:47:57;;;;;;;2.00;1.90;;;27.30;47.70;;;;;;4993494;28;20429;-46
2023/09/21 08:50:25;;;;;;;2.67;2.47;;;27.30;47.00;;;;;;4990508;28;20461;-47
2023/09/21 08:52:53;;;;;;;2.50;2.30;;;27.40;47.40;;;;;;4987799;28;20493;-46
2023/09/21 08:55:21;;;;;;;6.13;2.03;;;27.30;47.30;;;;;;4989930;28;20476;-44
2023/09/21 08:57:46;;;;;;;2.70;2.40;;;27.40;48.10;;;;;;4990943;28;20537;-44
2023/09/21 09:00:13;;;;;;;2.33;2.13;;;27.40;48.00;;;;;;4989928;28;20453;-46
2023/09/21 09:02:38;;;;;;;2.83;2.00;;;27.50;47.80;;;;;;4989558;28;20202;-47
2023/09/21 09:05:08;;;;;;;3.90;3.60;;;27.70;48.00;;;;;;4990143;28;20457;-44
2023/09/21 09:07:41;;;;;;;3.00;2.70;;;27.70;47.70;;;;;;4973735;28;20664;-45
2023/09/21 09:10:13;;;;;;;4.17;3.40;;;27.80;47.70;;;;;;4990834;28;20835;-44
2023/09/21 09:12:40;;;;;;;3.47;2.67;;;27.90;47.70;;;;;;4987505;28;21112;-45
2023/09/21 09:15:08;;;;;;;3.80;2.33;;;27.90;47.40;;;;;;4988510;28;20469;-44
2023/09/21 09:17:34;;;;;;;4.00;3.13;;;28.00;46.80;;;;;;4985077;28;20981;-46
2023/09/21 09:20:03;;;;;;;2.83;2.43;;;27.90;47.10;;;;;;4983762;28;20438;-44
2023/09/21 09:22:33;;;;;;;4.90;2.80;;;28.00;47.50;;;;;;4987543;28;20879;-44
2023/09/21 09:25:04;;;;;;;4.33;2.70;;;28.20;47.10;;;;;;4991020;28;20481;-44
2023/09/21 09:27:31;;;;;;;2.77;2.40;;;28.50;46.40;;;;;;4992165;28;20442;-45
2023/09/21 09:29:57;;;;;;;2.83;2.63;;;28.60;46.00;;;;;;4987991;28;20437;-43
2023/09/21 09:32:24;;;;;;;2.90;2.70;;;28.70;45.20;;;;;;4984953;28;20457;-45
2023/09/21 09:34:50;;;;;;;2.70;2.50;;;28.80;45.80;;;;;;4990622;28;20453;-48
2023/09/21 09:37:16;;;;;;;2.47;2.27;;;28.90;46.00;;;;;;4991083;28;20446;-50
2023/09/21 09:39:45;;;;;;;4.67;2.33;;;29.00;46.40;;;;;;4992271;28;20851;-49
2023/09/21 09:42:14;;;;;;;2.50;2.30;;;29.20;45.60;;;;;;4988281;28;20985;-45
2023/09/21 09:44:44;;;;;;;2.83;2.30;;;29.40;45.40;;;;;;4989306;28;20461;-44
2023/09/21 09:47:14;;;;;;;2.50;2.30;;;29.60;45.20;;;;;;4987975;28;20532;-47
2023/09/21 09:49:44;;;;;;;4.00;2.80;;;29.70;45.20;;;;;;4986641;28;20450;-47
2023/09/21 09:52:13;;;;;;;3.23;2.43;;;29.70;44.90;;;;;;4988924;28;20450;-46
2023/09/21 09:54:41;;;;;;;3.23;2.50;;;29.80;45.00;;;;;;4985182;28;20446;-48
2023/09/21 09:57:13;;;;;;;2.30;2.10;;;29.90;44.00;;;;;;4985102;28;20442;-47
2023/09/21 09:59:40;;;;;;;1.90;1.80;;;29.50;44.10;;;;;;4986415;28;20523;-47
2023/09/21 10:02:09;;;;;;;4.50;2.80;;;29.60;43.40;;;;;;4988108;28;20521;-46
2023/09/21 10:04:36;;;;;;;2.97;2.40;;;29.90;43.80;;;;;;4986742;28;20445;-48
2023/09/21 10:07:04;;;;;;;3.67;2.30;;;30.20;42.40;;;;;;4988253;28;20488;-46
2023/09/21 10:09:31;;;;;;;2.43;2.20;;;30.20;41.10;;;;;;4986041;28;20782;-47
2023/09/21 10:11:58;;;;;;;3.20;2.23;;;30.30;41.00;;;;;;4987884;28;20454;-46
2023/09/21 10:14:24;;;;;;;3.90;2.30;;;30.40;41.40;;;;;;4988571;28;21182;-46
2023/09/21 10:16:54;;;;;;;2.20;2.10;;;30.50;41.90;;;;;;4988443;28;20500;-48
2023/09/21 10:19:28;;;;;;;3.10;2.23;;;30.60;41.70;;;;;;4981366;28;20481;-51
2023/09/21 10:21:59;;;;;;;2.30;2.03;;;30.70;40.80;;;;;;4987962;28;20484;-47
2023/09/21 10:24:29;;;;;;;2.70;2.50;;;30.60;40.40;;;;;;4989433;28;20477;-47
2023/09/21 10:26:58;;;;;;;3.13;2.50;;;30.80;40.20;;;;;;4986555;28;20859;-46
2023/09/21 10:29:37;;;;;;;2.13;1.93;;;30.90;40.30;;;;;;4971043;28;20478;-46
2023/09/21 10:32:08;;;;;;;3.80;2.43;;;31.10;40.30;;;;;;4987410;28;20450;-49
2023/09/21 10:34:34;;;;;;;7.80;2.87;;;31.20;40.10;;;;;;4989860;28;21115;-49
2023/09/21 10:37:10;;;;;;;2.43;2.23;;;31.40;39.90;;;;;;4988372;28;20454;-47
2023/09/21 10:39:42;;;;;;;2.40;2.20;;;31.60;39.60;;;;;;4991340;28;20210;-47
2023/09/21 10:42:07;;;;;;;2.73;2.53;;;31.70;39.30;;;;;;4981917;28;20930;-46
2023/09/21 10:45:05;;;;;;;1.97;1.87;;;31.60;38.30;;;;;;4988507;28;20448;-49
2023/09/21 10:47:36;;;;;;;2.53;2.33;;;31.80;38.40;;;;;;4987286;28;20284;-50
2023/09/21 10:50:10;;;;;;;2.93;2.73;;;31.70;38.30;;;;;;4987807;28;20941;-48
2023/09/21 10:52:41;;;;;;;3.10;2.67;;;31.80;38.10;;;;;;4986847;28;20433;-48
2023/09/21 10:55:09;;;;;;;2.20;2.10;;;31.90;38.40;;;;;;4983517;28;20492;-49
2023/09/21 10:57:35;;;;;;;2.37;2.10;;;32.00;38.20;;;;;;4985022;28;20481;-48
2023/09/21 11:00:05;;;;;;;2.00;1.90;;;32.00;37.80;;;;;;4982660;28;20446;-44
2023/09/21 11:02:31;;;;;;;2.87;2.00;;;31.90;37.00;;;;;;4981403;28;20966;-44
2023/09/21 11:04:58;;;;;;;2.40;2.20;;;31.90;37.80;;;;;;4985173;28;20869;-47
2023/09/21 11:07:25;;;;;;;2.57;2.10;;;32.20;37.70;;;;;;4984250;28;20463;-45
2023/09/21 11:09:50;;;;;;;2.60;2.40;;;32.50;37.20;;;;;;4987925;28;20847;-45
2023/09/21 11:12:17;;;;;;;2.30;2.10;;;32.70;35.70;;;;;;4984456;28;20449;-47
2023/09/21 11:14:48;;;;;;;3.17;2.00;;;32.70;35.40;;;;;;4986981;28;20199;-45
2023/09/21 11:17:18;;;;;;;2.37;2.17;;;33.10;35.30;;;;;;4969664;28;21316;-45
2023/09/21 11:19:45;;;;;;;3.30;2.33;;;33.40;35.10;;;;;;4985259;28;20510;-45
2023/09/21 11:22:12;;;;;;;2.20;2.00;;;33.70;34.30;;;;;;4989607;28;20922;-46
2023/09/21 11:25:09;;;;;;;2.60;2.40;;;34.00;34.10;;;;;;4987741;28;20477;-48
2023/09/21 11:27:35;;;;;;;2.30;2.10;;;34.20;33.30;;;;;;4968848;28;20454;-48
2023/09/21 11:30:00;;;;;;;2.60;2.20;;;34.20;33.10;;;;;;4993549;28;20453;-47
2023/09/21 11:32:29;;;;;;;2.27;2.07;;;34.20;33.00;;;;;;4984240;28;20198;-48
2023/09/21 11:34:58;;;;;;;2.37;2.17;;;34.00;33.50;;;;;;4991565;28;20194;-49
2023/09/21 11:37:28;;;;;;;2.03;1.83;;;33.80;33.20;;;;;;4990513;28;20453;-47
2023/09/21 11:39:55;;;;;;;2.10;1.90;;;33.80;33.60;;;;;;4989798;28;20450;-49
2023/09/21 11:42:20;;;;;;;2.40;2.20;;;33.70;34.20;;;;;;4993459;28;20453;-50
2023/09/21 11:44:51;;;;;;;2.60;2.40;;;33.80;34.40;;;;;;4987284;28;20449;-49
2023/09/21 11:47:18;;;;;;;4.50;1.80;;;34.00;33.70;;;;;;4951757;28;20213;-47
2023/09/21 11:49:44;;;;;;;2.47;2.10;;;34.10;33.10;;;;;;4990409;28;20454;-47
2023/09/21 11:52:11;;;;;;;2.47;2.00;;;34.10;33.60;;;;;;4992509;28;20460;-46
2023/09/21 11:54:41;;;;;;;2.40;2.20;;;34.10;33.80;;;;;;4995064;28;20286;-47
2023/09/21 11:57:09;;;;;;;2.60;2.40;;;34.30;33.30;;;;;;4990806;28;20928;-46
2023/09/21 11:59:45;;;;;;;4.37;1.80;;;34.50;32.90;;;;;;4991166;28;20489;-46
2023/09/21 12:02:17;;;;;;;2.13;1.93;;;34.60;32.00;;;;;;4989176;28;20445;-51
2023/09/21 12:04:43;;;;;;;2.90;2.00;;;34.70;31.70;;;;;;4984001;28;20602;-46
2023/09/21 12:07:14;;;;;;;3.63;2.03;;;34.60;31.90;;;;;;4991521;28;20446;-51
2023/09/21 12:09:43;;;;;;;2.60;2.20;;;34.60;32.10;;;;;;4988652;28;20458;-48
2023/09/21 12:12:10;;;;;;;2.70;2.00;;;34.80;31.60;;;;;;4992477;28;20810;-47
2023/09/21 12:14:36;;;;;;;2.17;1.97;;;34.90;31.40;;;;;;4987082;28;20537;-48
2023/09/21 12:17:09;;;;;;;3.23;2.17;;;34.90;31.30;;;;;;4988069;28;23552;-48
2023/09/21 12:19:36;;;;;;;1.83;1.73;;;34.60;31.60;;;;;;4993553;28;20485;-50
2023/09/21 12:22:04;;;;;;;3.40;2.00;;;34.60;31.60;;;;;;4991019;28;20449;-46
2023/09/21 12:24:30;;;;;;;2.17;1.97;;;34.50;31.90;;;;;;4988588;28;20547;-45
2023/09/21 12:26:56;;;;;;;2.97;1.80;;;34.50;31.80;;;;;;4988051;28;21000;-48
2023/09/21 12:29:22;;;;;;;2.30;2.20;;;34.50;32.00;;;;;;4982832;28;20449;-46
2023/09/21 12:31:48;;;;;;;2.03;1.83;;;34.50;32.00;;;;;;4986586;28;20751;-47
2023/09/21 12:34:14;;;;;;;2.80;2.23;;;34.50;31.60;;;;;;4986389;28;20457;-46
2023/09/21 12:36:41;;;;;;;1.93;1.80;;;34.40;31.80;;;;;;4987885;28;20191;-45
2023/09/21 12:39:09;;;;;;;2.73;1.90;;;34.40;31.90;;;;;;4990663;28;20234;-47
2023/09/21 12:41:38;;;;;;;2.93;2.10;;;34.30;32.30;;;;;;4989855;28;20438;-45
2023/09/21 12:44:06;;;;;;;3.73;2.33;;;34.30;32.60;;;;;;4992501;28;20430;-46
2023/09/21 12:46:32;;;;;;;2.47;2.13;;;34.30;33.30;;;;;;4986672;28;20461;-48
2023/09/21 12:48:57;;;;;;;2.30;2.10;;;34.30;33.40;;;;;;4990257;28;20802;-47
2023/09/21 12:51:23;;;;;;;2.23;2.03;;;34.20;34.00;;;;;;4988142;28;20337;-46